Time;durP1;ratioP1;P1;durP2;ratioP2;P2;SDS_P1;SDS_P2;PMS_P1;PMS_P2;Temp;Humidity;BMP_temperature;BMP_pressure;BME280_temperature;BME280_humidity;BME280_pressure;Samples;Min_cycle;Max_cycle;Signal;HPM_P1;HPM_P2
2022/12/25 00:01:58;;;;;;;29.55;11.40;;;;;;;5.08;100.00;101419.28;5000507;28;20283;-44
2022/12/25 00:04:23;;;;;;;43.60;12.57;;;;;;;5.15;100.00;101431.63;4997024;28;20252;-45
2022/12/25 00:06:49;;;;;;;35.20;13.50;;;;;;;5.04;100.00;101428.16;4996579;28;20567;-45
2022/12/25 00:09:14;;;;;;;30.70;12.30;;;;;;;5.03;100.00;101435.25;4996703;28;20272;-45
2022/12/25 00:11:40;;;;;;;39.53;12.48;;;;;;;5.02;100.00;101438.78;4998510;28;20196;-46
2022/12/25 00:14:05;;;;;;;34.55;12.07;;;;;;;5.02;100.00;101435.25;4997894;28;20188;-46
2022/12/25 00:16:31;;;;;;;30.40;12.70;;;;;;;4.99;100.00;101432.63;4998549;28;20234;-44
2022/12/25 00:18:57;;;;;;;37.45;11.50;;;;;;;5.01;100.00;101450.31;4998352;28;20498;-45
2022/12/25 00:21:23;;;;;;;34.28;12.40;;;;;;;5.00;100.00;101451.19;4998883;28;20177;-45
2022/12/25 00:23:57;;;;;;;29.45;12.07;;;;;;;4.99;100.00;101462.69;4998849;28;20209;-45
2022/12/25 00:26:26;;;;;;;39.22;12.13;;;;;;;5.00;100.00;101447.66;4994084;28;20648;-46
2022/12/25 00:28:55;;;;;;;30.92;12.68;;;;;;;5.02;100.00;101448.53;4999217;28;20651;-45
2022/12/25 00:31:22;;;;;;;39.92;12.07;;;;;;;5.03;100.00;101445.88;4999721;28;20173;-44
2022/12/25 00:33:49;;;;;;;31.58;11.52;;;;;;;5.02;100.00;101444.09;4996641;28;20646;-45
2022/12/25 00:36:17;;;;;;;37.65;11.35;;;;;;;5.02;100.00;101443.22;5001629;28;20201;-46
2022/12/25 00:38:44;;;;;;;35.78;11.35;;;;;;;5.04;100.00;101447.63;4999188;28;20181;-45
2022/12/25 00:41:15;;;;;;;36.92;11.65;;;;;;;4.98;100.00;101431.72;5002365;28;20169;-45
2022/12/25 00:43:41;;;;;;;34.97;11.95;;;;;;;5.00;100.00;101443.22;4998988;28;20179;-45
2022/12/25 00:46:06;;;;;;;36.58;11.20;;;;;;;4.99;100.00;101445.91;4997059;28;20173;-45
2022/12/25 00:48:34;;;;;;;30.17;11.32;;;;;;;4.99;100.00;101452.06;4998167;28;20653;-43
2022/12/25 00:51:01;;;;;;;27.80;12.38;;;;;;;4.92;100.00;101437.94;4999183;28;20267;-47
2022/12/25 00:53:28;;;;;;;33.03;11.38;;;;;;;4.90;100.00;101453.00;5002177;28;20200;-45
2022/12/25 00:55:59;;;;;;;39.67;11.38;;;;;;;4.92;100.00;101443.25;4999483;28;20197;-45
2022/12/25 00:58:27;;;;;;;32.33;10.68;;;;;;;4.89;100.00;101450.34;5012347;28;20343;-46
2022/12/25 01:00:52;;;;;;;31.17;10.45;;;;;;;4.90;100.00;101446.81;5000782;28;20184;-46
2022/12/25 01:03:18;;;;;;;37.63;11.73;;;;;;;4.91;100.00;101453.88;4997356;28;20196;-47
2022/12/25 01:05:52;;;;;;;36.00;10.25;;;;;;;4.87;100.00;101462.75;4998046;28;20257;-48
2022/12/25 01:08:21;;;;;;;37.72;10.05;;;;;;;4.88;100.00;101464.53;4997248;28;20506;-44
2022/12/25 01:10:53;;;;;;;37.53;10.38;;;;;;;4.91;100.00;101456.53;4997998;28;20204;-44
2022/12/25 01:13:18;;;;;;;39.10;10.57;;;;;;;4.92;100.00;101456.53;4995084;28;20196;-48
2022/12/25 01:15:44;;;;;;;40.40;10.88;;;;;;;4.90;100.00;101460.97;4998057;28;20694;-45
2022/12/25 01:18:09;;;;;;;35.42;10.57;;;;;;;4.91;100.00;101464.50;5000921;28;20235;-46
2022/12/25 01:20:35;;;;;;;31.30;10.88;;;;;;;4.91;100.00;101470.69;4996996;28;20646;-44
2022/12/25 01:23:00;;;;;;;23.52;9.35;;;;;;;4.93;100.00;101458.28;4997848;28;20205;-44
2022/12/25 01:25:26;;;;;;;34.17;10.57;;;;;;;4.92;100.00;101455.66;4998041;28;20193;-44
2022/12/25 01:27:51;;;;;;;36.17;10.25;;;;;;;4.89;100.00;101453.88;5001088;28;20200;-44
2022/12/25 01:30:17;;;;;;;27.48;10.07;;;;;;;4.90;100.00;101466.28;4999028;28;20205;-46
2022/12/25 01:32:42;;;;;;;29.10;9.73;;;;;;;4.89;100.00;101463.63;5000836;28;20288;-45
2022/12/25 01:35:08;;;;;;;21.33;8.68;;;;;;;4.90;100.00;101458.31;5002275;28;20252;-43
2022/12/25 01:37:33;;;;;;;37.42;10.00;;;;;;;4.90;100.00;101471.59;5000657;28;20184;-45
2022/12/25 01:39:59;;;;;;;27.08;8.82;;;;;;;4.92;100.00;101466.28;5000362;28;20206;-44
2022/12/25 01:42:24;;;;;;;32.00;9.25;;;;;;;4.89;100.00;101459.19;5003503;28;20292;-45
2022/12/25 01:44:50;;;;;;;34.72;9.38;;;;;;;4.92;100.00;101461.84;4991097;28;20176;-45
2022/12/25 01:47:17;;;;;;;30.85;9.55;;;;;;;4.94;100.00;101467.13;5001127;28;20181;-46
2022/12/25 01:49:46;;;;;;;36.17;9.73;;;;;;;4.92;100.00;101463.63;5010754;28;20850;-45
2022/12/25 01:52:19;;;;;;;26.08;8.55;;;;;;;4.95;100.00;101472.44;5001013;28;20293;-44
2022/12/25 01:54:57;;;;;;;21.60;7.40;;;;;;;4.97;100.00;101475.09;5000564;28;20208;-46
2022/12/25 01:57:26;;;;;;;17.27;6.75;;;;;;;4.97;100.00;101477.75;5001207;28;20204;-47
2022/12/25 01:59:53;;;;;;;27.85;7.18;;;;;;;4.95;100.00;101461.81;4998046;28;20184;-45
2022/12/25 02:02:20;;;;;;;28.95;8.45;;;;;;;4.95;100.00;101469.78;5003279;28;20197;-46
2022/12/25 02:05:07;;;;;;;28.42;7.95;;;;;;;4.88;100.00;101468.06;5006604;28;20187;-45
2022/12/25 02:07:36;;;;;;;26.45;7.45;;;;;;;4.89;100.00;101472.47;5000181;28;20201;-46
2022/12/25 02:10:02;;;;;;;24.27;7.50;;;;;;;4.88;100.00;101469.84;5004730;28;20632;-46
2022/12/25 02:12:31;;;;;;;28.77;7.68;;;;;;;4.89;100.00;101482.22;5004916;28;20306;-46
2022/12/25 02:15:08;;;;;;;30.30;7.40;;;;;;;4.90;100.00;101474.25;5007165;28;20201;-47
2022/12/25 02:18:06;;;;;;;24.95;8.63;;;;;;;4.94;100.00;101473.34;4999889;28;20268;-45
2022/12/25 02:20:51;;;;;;;23.63;7.78;;;;;;;4.97;100.00;101483.06;5001449;28;20631;-45
2022/12/25 02:23:29;;;;;;;36.80;10.57;;;;;;;4.94;100.00;101478.66;5003246;28;20744;-45
2022/12/25 02:26:28;;;;;;;30.40;9.35;;;;;;;4.99;100.00;101483.06;4999321;28;20258;-45
2022/12/25 02:29:07;;;;;;;37.60;10.20;;;;;;;4.98;100.00;101489.25;5002025;28;20512;-45
2022/12/25 02:32:06;;;;;;;36.75;10.68;;;;;;;5.00;100.00;101493.66;5011654;28;20557;-44
2022/12/25 02:34:40;;;;;;;30.20;10.45;;;;;;;5.03;100.00;101501.63;4999816;28;20213;-47
2022/12/25 02:37:11;;;;;;;29.90;10.45;;;;;;;5.02;100.00;101493.66;5001118;28;20531;-45
2022/12/25 02:40:04;;;;;;;34.95;11.40;;;;;;;5.04;100.00;101489.22;4998794;28;20188;-46
2022/12/25 03:08:03;;;;;;;40.65;13.15;;;;;;;5.09;100.00;101522.81;5006801;28;20197;-48
2022/12/25 03:13:20;;;;;;;39.35;13.05;;;;;;;5.10;100.00;101503.38;4998270;28;20275;-46
2022/12/25 03:18:33;;;;;;;46.22;13.50;;;;;;;5.10;100.00;101516.66;4997129;28;20188;-46
2022/12/25 03:32:17;;;;;;;28.17;12.23;;;;;;;5.11;100.00;101498.94;5001320;28;20708;-45
2022/12/25 04:36:14;;;;;;;50.22;24.77;;;;;;;4.79;100.00;101428.28;4998341;28;20690;-45
2022/12/25 04:38:40;;;;;;;53.13;26.92;;;;;;;4.72;100.00;101432.75;4998947;28;20185;-45
2022/12/25 04:41:07;;;;;;;56.67;25.83;;;;;;;4.72;100.00;101429.19;5001441;28;20189;-44
2022/12/25 04:43:32;;;;;;;65.38;26.13;;;;;;;4.67;100.00;101437.16;4999651;28;20699;-44
2022/12/25 04:45:59;;;;;;;44.75;23.25;;;;;;;4.68;100.00;101432.75;4996043;28;20169;-45
2022/12/25 04:48:28;;;;;;;53.53;24.05;;;;;;;4.59;100.00;101433.69;5001653;28;20188;-46
2022/12/25 04:50:55;;;;;;;45.38;22.55;;;;;;;4.60;100.00;101438.09;4999252;28;20234;-45
2022/12/25 04:53:21;;;;;;;46.85;21.98;;;;;;;4.63;100.00;101439.84;4994838;28;20213;-46
2022/12/25 04:55:47;;;;;;;53.70;22.02;;;;;;;4.61;100.00;101445.16;5001564;28;20287;-45
2022/12/25 04:58:12;;;;;;;42.60;21.35;;;;;;;4.65;100.00;101438.94;4996147;28;20268;-45
2022/12/25 05:00:38;;;;;;;48.35;21.33;;;;;;;4.65;100.00;101440.72;4995678;28;20197;-45
2022/12/25 05:03:04;;;;;;;49.20;21.88;;;;;;;4.65;100.00;101433.63;4986191;28;20208;-45
2022/12/25 05:05:29;;;;;;;51.03;21.65;;;;;;;4.64;100.00;101428.34;4995866;28;20196;-44
2022/12/25 05:07:56;;;;;;;50.33;21.70;;;;;;;4.64;100.00;101423.94;5014399;28;20180;-45
2022/12/25 05:10:21;;;;;;;56.78;23.73;;;;;;;4.64;100.00;101423.06;5000333;28;20185;-47
2022/12/25 05:12:47;;;;;;;64.53;23.35;;;;;;;4.68;100.00;101424.78;5002260;28;20209;-47
2022/12/25 05:15:12;;;;;;;41.72;19.83;;;;;;;4.72;100.00;101410.59;5004658;28;20239;-47
2022/12/25 05:17:38;;;;;;;58.42;22.95;;;;;;;4.70;100.00;101410.63;5003064;28;20188;-45
2022/12/25 05:20:05;;;;;;;51.55;21.40;;;;;;;4.72;100.00;101410.59;5005226;28;20615;-44
2022/12/25 05:22:30;;;;;;;58.03;22.90;;;;;;;4.69;100.00;101406.19;5004014;28;20209;-47
2022/12/25 05:24:56;;;;;;;58.78;23.10;;;;;;;4.74;100.00;101403.50;5001526;28;20180;-44
2022/12/25 05:27:21;;;;;;;67.50;23.98;;;;;;;4.79;100.00;101398.19;5002098;28;20185;-45
2022/12/25 05:29:47;;;;;;;66.68;23.70;;;;;;;4.75;100.00;101394.69;5002689;28;20185;-46
2022/12/25 05:32:12;;;;;;;63.13;25.65;;;;;;;4.76;100.00;101401.75;5000688;28;20201;-45
2022/12/25 05:34:38;;;;;;;71.97;24.35;;;;;;;4.75;100.00;101392.91;5000828;28;20216;-44
2022/12/25 05:37:03;;;;;;;80.68;26.02;;;;;;;4.78;100.00;101396.44;5002804;28;20315;-45
2022/12/25 05:39:29;;;;;;;72.57;25.83;;;;;;;4.78;100.00;101401.75;4997014;28;20200;-45
2022/12/25 05:41:54;;;;;;;75.43;25.20;;;;;;;4.83;100.00;101398.19;5001173;28;20354;-45
2022/12/25 05:44:20;;;;;;;83.53;26.90;;;;;;;4.81;100.00;101392.00;5001274;28;20642;-44
2022/12/25 05:46:45;;;;;;;85.25;27.50;;;;;;;4.82;100.00;101391.09;4998199;28;20630;-44
2022/12/25 05:49:11;;;;;;;84.00;28.38;;;;;;;4.85;100.00;101385.75;5002293;28;20280;-44
2022/12/25 05:51:36;;;;;;;100.28;29.65;;;;;;;4.86;100.00;101389.31;5003229;28;20207;-46
2022/12/25 05:54:02;;;;;;;98.55;28.40;;;;;;;4.85;100.00;101383.09;4998401;28;20185;-44
2022/12/25 05:56:28;;;;;;;103.35;31.77;;;;;;;4.82;100.00;101391.09;5001988;28;20626;-45
2022/12/25 05:58:53;;;;;;;97.43;28.08;;;;;;;4.85;100.00;101391.06;4998129;28;20259;-45
2022/12/25 06:01:23;;;;;;;97.78;29.30;;;;;;;4.80;100.00;101395.53;5001821;28;20331;-45
2022/12/25 06:03:48;;;;;;;86.45;28.02;;;;;;;4.83;100.00;101390.22;5002647;28;20531;-46
2022/12/25 06:06:14;;;;;;;87.32;29.17;;;;;;;4.82;100.00;101384.91;5001460;28;20169;-47
2022/12/25 06:08:40;;;;;;;79.38;28.83;;;;;;;4.83;100.00;101390.22;5006066;28;20454;-43
2022/12/25 06:11:07;;;;;;;85.78;30.02;;;;;;;4.79;100.00;101390.22;5000467;28;20268;-45
2022/12/25 06:13:33;;;;;;;88.50;31.88;;;;;;;4.76;100.00;101380.50;4999723;28;20576;-45
2022/12/25 06:16:03;;;;;;;91.20;31.30;;;;;;;4.77;100.00;101382.28;5001096;28;20200;-45
2022/12/25 06:18:29;;;;;;;89.70;30.63;;;;;;;4.75;100.00;101392.91;4998892;28;20224;-46
2022/12/25 06:20:54;;;;;;;87.25;31.95;;;;;;;4.75;100.00;101392.03;4998744;28;20217;-43
2022/12/25 06:23:20;;;;;;;94.85;32.97;;;;;;;4.70;100.00;101389.41;5003068;28;20291;-45
2022/12/25 06:25:45;;;;;;;101.38;31.95;;;;;;;4.69;100.00;101373.47;5006371;28;20570;-45
2022/12/25 06:28:11;;;;;;;90.80;31.65;;;;;;;4.68;100.00;101372.59;4999603;28;20552;-44
2022/12/25 06:30:36;;;;;;;101.53;33.53;;;;;;;4.66;100.00;101379.69;4999337;28;20213;-45
2022/12/25 06:33:02;;;;;;;109.43;33.50;;;;;;;4.64;100.00;101367.31;5000565;28;20209;-43
2022/12/25 06:35:27;;;;;;;104.82;33.03;;;;;;;4.61;100.00;101388.53;5000198;28;20189;-45
2022/12/25 06:37:53;;;;;;;108.07;34.75;;;;;;;4.62;100.00;101377.06;4999803;28;20219;-44
2022/12/25 06:40:18;;;;;;;101.30;33.60;;;;;;;4.57;100.00;101378.81;4997117;28;20551;-43
2022/12/25 06:42:44;;;;;;;96.88;32.38;;;;;;;4.52;100.00;101382.38;5000194;28;20204;-44
2022/12/25 06:45:10;;;;;;;90.97;30.25;;;;;;;4.52;100.00;101397.44;4996479;28;20177;-43
2022/12/25 06:47:38;;;;;;;94.13;29.75;;;;;;;4.51;100.00;101387.72;4998327;28;20563;-44
2022/12/25 06:50:05;;;;;;;90.53;30.85;;;;;;;4.50;100.00;101394.81;4998106;28;20312;-44
2022/12/25 06:52:31;;;;;;;98.28;31.38;;;;;;;4.49;100.00;101392.16;5002078;28;20212;-45
2022/12/25 06:54:57;;;;;;;92.43;30.15;;;;;;;4.46;100.00;101403.66;5003092;28;20211;-45
2022/12/25 06:57:22;;;;;;;85.72;30.42;;;;;;;4.49;100.00;101394.81;4999484;28;20189;-46
2022/12/25 06:59:48;;;;;;;94.82;31.23;;;;;;;4.49;100.00;101408.06;5000070;28;20195;-46
2022/12/25 07:02:18;;;;;;;95.97;29.42;;;;;;;4.46;100.00;101413.38;5000726;28;20702;-43
2022/12/25 07:04:45;;;;;;;96.53;30.35;;;;;;;4.45;100.00;101411.63;5000358;28;20185;-46
2022/12/25 07:07:11;;;;;;;89.88;30.13;;;;;;;4.41;100.00;101402.78;4997496;28;20623;-44
2022/12/25 07:09:41;;;;;;;83.93;28.92;;;;;;;4.41;100.00;101409.84;5007628;28;20276;-45
2022/12/25 07:12:06;;;;;;;94.85;31.23;;;;;;;4.41;100.00;101416.03;4996135;28;20300;-46
2022/12/25 07:14:32;;;;;;;90.78;31.00;;;;;;;4.43;100.00;101429.31;4998403;28;20285;-43
2022/12/25 07:16:57;;;;;;;91.25;31.20;;;;;;;4.42;100.00;101433.75;5001700;28;20185;-46
2022/12/25 07:19:23;;;;;;;89.57;30.75;;;;;;;4.45;100.00;101441.69;5000587;28;20227;-45
2022/12/25 07:21:48;;;;;;;87.82;31.63;;;;;;;4.42;100.00;101431.09;4999365;28;20635;-45
2022/12/25 07:24:21;;;;;;;87.07;29.90;;;;;;;4.41;100.00;101421.34;5002954;28;20683;-45
2022/12/25 07:26:47;;;;;;;68.63;28.40;;;;;;;4.51;100.00;101417.78;4996493;28;20208;-44
2022/12/25 07:29:12;;;;;;;74.32;29.05;;;;;;;4.51;100.00;101422.22;5003127;28;20180;-44
2022/12/25 07:31:38;;;;;;;81.72;29.83;;;;;;;4.43;100.00;101416.03;4999471;28;20226;-44
2022/12/25 07:34:03;;;;;;;77.75;28.92;;;;;;;4.39;100.00;101423.13;4996061;28;20176;-46
2022/12/25 07:36:29;;;;;;;86.93;28.48;;;;;;;4.38;100.00;101413.41;5002187;28;20223;-43
2022/12/25 07:38:55;;;;;;;91.13;30.10;;;;;;;4.34;100.00;101409.88;5000465;28;20267;-43
2022/12/25 07:41:22;;;;;;;81.85;28.58;;;;;;;4.37;100.00;101430.19;5008792;28;20234;-43
2022/12/25 07:43:51;;;;;;;81.88;29.85;;;;;;;4.34;100.00;101419.59;4999816;28;20189;-43
2022/12/25 07:46:17;;;;;;;84.00;29.50;;;;;;;4.37;100.00;101430.19;4999550;28;20191;-44
2022/12/25 07:48:43;;;;;;;68.40;27.08;;;;;;;4.36;100.00;101436.41;4998939;28;20563;-43
2022/12/25 07:51:11;;;;;;;75.90;28.10;;;;;;;4.38;100.00;101442.59;4992146;28;20204;-45
2022/12/25 07:53:38;;;;;;;72.05;27.67;;;;;;;4.41;100.00;101437.25;4990047;28;20205;-43
2022/12/25 07:56:16;;;;;;;79.60;27.48;;;;;;;4.43;100.00;101439.91;4990438;28;20200;-42
2022/12/25 07:58:43;;;;;;;70.85;27.42;;;;;;;4.45;100.00;101439.03;4989361;28;20169;-42
2022/12/25 08:01:16;;;;;;;71.28;27.48;;;;;;;4.43;100.00;101424.88;4988594;28;20183;-45
2022/12/25 08:03:43;;;;;;;67.88;27.48;;;;;;;4.44;100.00;101437.28;4990747;28;20165;-40
2022/12/25 08:06:10;;;;;;;76.07;28.58;;;;;;;4.46;100.00;101435.50;4991021;28;20249;-42
2022/12/25 08:08:37;;;;;;;81.30;26.95;;;;;;;4.49;100.00;101424.84;4990756;28;20632;-43
2022/12/25 08:11:03;;;;;;;69.30;27.77;;;;;;;4.46;100.00;101419.56;4990959;28;20220;-41
2022/12/25 08:13:30;;;;;;;68.97;27.77;;;;;;;4.47;100.00;101426.63;4990916;28;20263;-42
2022/12/25 08:15:58;;;;;;;65.47;26.17;;;;;;;4.47;100.00;101426.63;4990334;28;20224;-43
2022/12/25 08:18:23;;;;;;;63.97;26.63;;;;;;;4.45;100.00;101420.44;4990162;28;20165;-42
2022/12/25 08:20:49;;;;;;;73.00;28.30;;;;;;;4.45;100.00;101414.28;4989465;28;20204;-41
2022/12/25 08:23:14;;;;;;;67.05;25.98;;;;;;;4.44;100.00;101421.34;4990002;28;20676;-43
2022/12/25 08:25:39;;;;;;;72.85;27.10;;;;;;;4.44;100.00;101408.09;4990439;28;20511;-43
2022/12/25 08:28:05;;;;;;;62.25;26.73;;;;;;;4.42;100.00;101411.63;4973041;28;20268;-42
2022/12/25 08:30:30;;;;;;;54.13;24.90;;;;;;;4.51;100.00;101393.03;4990549;28;20188;-42
2022/12/25 08:32:56;;;;;;;65.13;25.27;;;;;;;4.51;100.00;101398.34;4990072;28;20228;-43
2022/12/25 08:35:21;;;;;;;64.68;26.17;;;;;;;4.46;100.00;101390.41;4990597;28;20259;-44
2022/12/25 08:37:47;;;;;;;65.82;26.05;;;;;;;4.48;100.00;101393.94;4991404;28;20264;-45
2022/12/25 08:40:12;;;;;;;63.75;25.15;;;;;;;4.51;100.00;101385.94;4990710;28;20209;-45
2022/12/25 08:42:38;;;;;;;56.97;25.10;;;;;;;4.51;100.00;101390.38;4991218;28;20570;-43
2022/12/25 08:45:04;;;;;;;59.03;24.63;;;;;;;4.54;100.00;101390.34;4991532;28;20312;-44
2022/12/25 08:47:29;;;;;;;56.60;24.52;;;;;;;4.58;100.00;101377.97;4990780;28;20205;-42
2022/12/25 08:49:55;;;;;;;62.40;24.45;;;;;;;4.60;100.00;101390.31;4991049;28;20705;-46
2022/12/25 08:52:20;;;;;;;55.20;24.92;;;;;;;4.65;100.00;101380.56;4991200;28;20240;-42
2022/12/25 08:54:46;;;;;;;55.80;24.10;;;;;;;4.69;100.00;101395.56;4990826;28;20213;-42
2022/12/25 08:57:11;;;;;;;52.13;24.38;;;;;;;4.72;100.00;101405.28;4989797;28;20228;-43
2022/12/25 08:59:37;;;;;;;59.72;24.98;;;;;;;4.74;100.00;101408.81;4990810;28;20169;-42
2022/12/25 09:02:03;;;;;;;65.38;24.63;;;;;;;4.81;100.00;101405.28;4990449;28;20292;-43
2022/12/25 09:04:29;;;;;;;59.15;23.50;;;;;;;4.83;100.00;101408.81;4989819;28;20240;-43
2022/12/25 09:06:55;;;;;;;53.97;24.35;;;;;;;4.85;100.00;101407.00;4991129;28;20186;-45
2022/12/25 09:09:24;;;;;;;53.58;24.05;;;;;;;4.88;100.00;101409.66;4990757;28;20178;-43
2022/12/25 09:11:49;;;;;;;50.88;24.00;;;;;;;4.92;100.00;101407.88;4990618;28;20200;-42
2022/12/25 09:14:15;;;;;;;57.58;23.73;;;;;;;4.90;100.00;101399.91;4990210;28;20634;-43
2022/12/25 09:16:40;;;;;;;48.60;23.33;;;;;;;4.91;100.00;101417.59;4990550;28;20217;-44
2022/12/25 09:19:06;;;;;;;57.83;24.35;;;;;;;4.98;100.00;101420.22;4989383;28;20476;-47
2022/12/25 09:21:31;;;;;;;51.45;23.02;;;;;;;5.07;100.00;101422.81;4990374;28;20171;-43
2022/12/25 09:23:57;;;;;;;54.92;21.70;;;;;;;5.07;100.00;101417.50;4990972;28;20170;-43
2022/12/25 09:26:22;;;;;;;41.78;21.60;;;;;;;5.19;100.00;101425.41;4989645;28;20524;-45
2022/12/25 09:28:49;;;;;;;47.50;21.85;;;;;;;5.14;100.00;101424.56;4990874;28;20208;-43
2022/12/25 09:31:14;;;;;;;45.40;21.05;;;;;;;5.13;100.00;101422.78;4990817;28;20189;-45
2022/12/25 09:33:48;;;;;;;48.00;21.58;;;;;;;5.08;100.00;101429.91;4982896;28;20571;-50
2022/12/25 09:36:13;;;;;;;47.00;21.02;;;;;;;5.24;100.00;101422.72;5016477;28;20603;-43
2022/12/25 09:38:39;;;;;;;45.70;20.95;;;;;;;5.20;100.00;101413.00;5019571;28;20319;-46
2022/12/25 09:41:07;;;;;;;44.35;19.77;;;;;;;5.24;100.00;101426.25;5015153;28;20228;-41
2022/12/25 09:43:46;;;;;;;47.10;21.30;;;;;;;5.37;100.00;101440.31;5010452;28;20299;-44
2022/12/25 09:46:17;;;;;;;48.67;19.52;;;;;;;5.31;100.00;101427.09;5010199;28;20161;-44
2022/12/25 09:48:49;;;;;;;44.30;19.17;;;;;;;5.58;100.00;101437.53;5010378;28;20654;-42
2022/12/25 09:51:16;;;;;;;50.95;21.20;;;;;;;5.36;100.00;101436.78;5010444;28;20208;-43
2022/12/25 09:53:51;;;;;;;46.45;19.65;;;;;;;5.32;100.00;101428.88;5013801;28;20173;-41
2022/12/25 09:56:21;;;;;;;40.08;19.10;;;;;;;5.41;100.00;101419.94;5029007;28;20215;-42
2022/12/25 09:58:47;;;;;;;32.80;18.33;;;;;;;5.37;100.00;101404.00;5013970;28;20188;-44
2022/12/25 10:05:26;;;;;;;39.60;18.27;;;;;;;5.41;100.00;101393.38;4993290;28;20175;-43
2022/12/25 10:08:10;;;;;;;41.00;18.75;;;;;;;5.42;100.00;101403.09;5009344;28;20324;-44
2022/12/25 10:10:50;;;;;;;38.10;17.98;;;;;;;5.48;100.00;101397.72;4993180;28;20169;-43
2022/12/25 10:13:30;;;;;;;37.80;17.85;;;;;;;5.48;100.00;101403.03;4993942;28;20405;-42
2022/12/25 10:16:05;;;;;;;33.45;15.90;;;;;;;5.50;100.00;101396.81;4994160;28;20580;-42
2022/12/25 10:18:46;;;;;;;39.75;16.75;;;;;;;5.52;100.00;101402.13;4993824;28;20199;-42
2022/12/25 10:21:14;;;;;;;34.67;16.33;;;;;;;5.53;100.00;101406.53;4993982;28;20153;-42
2022/12/25 10:23:45;;;;;;;35.65;17.05;;;;;;;5.53;100.00;101402.13;4993514;28;20189;-41
2022/12/25 10:26:17;;;;;;;40.10;16.20;;;;;;;5.54;100.00;101393.25;4992574;28;20244;-42
2022/12/25 10:29:07;;;;;;;42.60;16.42;;;;;;;5.55;100.00;101379.09;4993894;28;20177;-41
2022/12/25 10:31:34;;;;;;;34.65;15.48;;;;;;;5.62;100.00;101381.66;4989501;28;20197;-41
2022/12/25 10:34:00;;;;;;;37.65;15.82;;;;;;;5.61;100.00;101380.78;4993716;28;20201;-40
2022/12/25 10:36:28;;;;;;;37.05;15.70;;;;;;;5.64;100.00;101364.81;4993347;28;20220;-41
2022/12/25 10:38:54;;;;;;;35.13;16.00;;;;;;;5.74;100.00;101353.19;4993686;28;20637;-41
2022/12/25 10:41:40;;;;;;;31.95;14.55;;;;;;;5.81;100.00;101347.81;4993393;28;20210;-43
2022/12/25 10:44:14;;;;;;;41.75;15.82;;;;;;;5.75;100.00;101336.34;4993365;28;20252;-44
2022/12/25 10:46:41;;;;;;;32.83;14.77;;;;;;;5.76;100.00;101338.09;4993408;28;20592;-43
2022/12/25 10:49:14;;;;;;;36.13;15.23;;;;;;;5.90;100.00;101342.38;4993155;28;20169;-42
2022/12/25 10:51:39;;;;;;;34.17;15.23;;;;;;;5.91;100.00;101336.19;4993292;28;20275;-42
2022/12/25 10:54:21;;;;;;;32.20;15.23;;;;;;;5.76;100.00;101339.88;4993347;28;20174;-44
2022/12/25 10:57:00;;;;;;;36.15;14.10;;;;;;;5.80;100.00;101317.69;4992647;28;20169;-43
2022/12/25 10:59:28;;;;;;;33.30;14.07;;;;;;;5.71;100.00;101323.97;4992607;28;20149;-44
2022/12/25 11:02:11;;;;;;;33.92;14.73;;;;;;;5.86;100.00;101314.97;4992264;28;20260;-42
2022/12/25 11:04:37;;;;;;;30.65;14.10;;;;;;;5.82;100.00;101330.97;4992870;28;20168;-42
2022/12/25 11:07:12;;;;;;;35.38;13.95;;;;;;;5.81;100.00;101324.75;4992667;28;20162;-44
2022/12/25 11:09:38;;;;;;;25.75;13.02;;;;;;;5.84;100.00;101321.19;4992568;28;20157;-43
2022/12/25 11:12:04;;;;;;;29.48;13.45;;;;;;;5.88;100.00;101306.94;4992570;28;20197;-41
2022/12/25 11:14:30;;;;;;;33.95;13.00;;;;;;;5.84;100.00;101311.44;4992319;28;20170;-43
2022/12/25 11:17:06;;;;;;;30.42;12.73;;;;;;;5.85;100.00;101315.84;4992656;28;20199;-43
2022/12/25 11:19:32;;;;;;;28.75;12.55;;;;;;;5.95;100.00;101316.69;4992506;28;20235;-43
2022/12/25 11:21:59;;;;;;;28.20;12.93;;;;;;;5.85;100.00;101307.00;4992338;28;20201;-45
2022/12/25 11:24:28;;;;;;;26.27;12.68;;;;;;;5.81;100.00;101297.28;4991144;28;20169;-43
2022/12/25 11:26:57;;;;;;;28.48;12.43;;;;;;;5.82;100.00;101286.66;4997291;28;20189;-48
2022/12/25 11:29:51;;;;;;;24.42;11.93;;;;;;;5.86;100.00;101282.16;4998807;28;20192;-48
2022/12/25 11:32:16;;;;;;;25.95;10.85;;;;;;;5.87;100.00;101274.16;4999445;28;20192;-48
2022/12/25 11:34:45;;;;;;;38.90;13.73;;;;;;;5.90;100.00;101284.78;5006509;28;20232;-49
2022/12/25 11:37:17;;;;;;;26.65;12.50;;;;;;;5.92;100.00;101295.38;4999980;28;20242;-47
2022/12/25 11:39:43;;;;;;;28.95;12.02;;;;;;;5.93;100.00;101290.06;4998933;28;20186;-48
2022/12/25 11:42:39;;;;;;;32.53;13.07;;;;;;;5.90;100.00;101273.25;4998968;28;20248;-49
2022/12/25 11:45:10;;;;;;;30.42;12.73;;;;;;;5.94;100.00;101273.22;5001514;28;20191;-44
2022/12/25 11:47:52;;;;;;;27.35;11.70;;;;;;;5.94;100.00;101270.56;4991728;28;20220;-44
2022/12/25 11:50:22;;;;;;;31.77;11.75;;;;;;;5.98;100.00;101268.75;4992111;28;20174;-43
2022/12/25 11:52:49;;;;;;;28.08;12.45;;;;;;;5.95;100.00;101269.69;4991762;28;20190;-42
2022/12/25 11:55:27;;;;;;;32.08;12.15;;;;;;;5.98;100.00;101266.09;4990793;28;20197;-46
2022/12/25 11:58:00;;;;;;;28.27;12.82;;;;;;;6.00;100.00;101264.31;4992057;28;20585;-47
2022/12/25 12:00:29;;;;;;;30.02;12.27;;;;;;;6.02;100.00;101266.94;4991397;28;20612;-43
2022/12/25 12:03:13;;;;;;;27.60;12.65;;;;;;;6.06;100.00;101263.34;4991520;28;20204;-43
2022/12/25 12:05:47;;;;;;;31.00;13.00;;;;;;;6.03;100.00;101266.91;4991137;28;20252;-41
2022/12/25 12:08:13;;;;;;;29.88;12.48;;;;;;;6.06;100.00;101264.22;4990353;28;20240;-43
2022/12/25 12:10:47;;;;;;;23.95;13.77;;;;;;;6.07;100.00;101276.63;4991331;28;20169;-41
2022/12/25 12:13:34;;;;;;;26.60;13.15;;;;;;;6.07;100.00;101263.31;4990397;28;20287;-42
2022/12/25 12:16:00;;;;;;;24.75;12.07;;;;;;;6.06;100.00;101260.69;4990425;28;20227;-43
2022/12/25 12:18:25;;;;;;;29.38;13.00;;;;;;;6.08;100.00;101266.84;4991215;28;20719;-42
2022/12/25 12:21:05;;;;;;;25.48;12.80;;;;;;;6.12;100.00;101268.56;4991604;28;20173;-42
2022/12/25 12:23:35;;;;;;;27.10;13.27;;;;;;;6.13;100.00;101271.22;4991511;28;20197;-43
2022/12/25 12:26:02;;;;;;;26.48;12.95;;;;;;;6.13;100.00;101273.88;4991142;28;20212;-43
2022/12/25 12:28:43;;;;;;;29.33;12.60;;;;;;;6.15;100.00;101268.56;4990161;28;20244;-43
2022/12/25 12:31:09;;;;;;;33.20;12.60;;;;;;;6.17;100.00;101264.09;4991327;28;20233;-42
2022/12/25 12:33:56;;;;;;;28.52;13.23;;;;;;;6.16;100.00;101271.19;4989686;28;20612;-45
2022/12/25 12:36:25;;;;;;;32.38;13.80;;;;;;;6.18;100.00;101265.84;4991080;28;20189;-45
2022/12/25 12:38:54;;;;;;;28.13;13.32;;;;;;;6.18;100.00;101274.69;4990751;28;20166;-43
2022/12/25 12:41:21;;;;;;;27.00;13.40;;;;;;;6.19;100.00;101275.59;4989698;28;20169;-42
2022/12/25 12:43:58;;;;;;;26.35;12.88;;;;;;;6.20;100.00;101269.38;4990812;28;20584;-45
2022/12/25 12:46:26;;;;;;;26.95;12.43;;;;;;;6.21;100.00;101259.59;4991080;28;20162;-43
2022/12/25 12:49:05;;;;;;;30.58;12.27;;;;;;;6.21;100.00;101265.81;4991075;28;20184;-45
2022/12/25 12:51:33;;;;;;;21.20;12.52;;;;;;;6.23;100.00;101264.03;4990422;28;20177;-47
2022/12/25 12:54:20;;;;;;;20.13;11.88;;;;;;;6.22;100.00;101254.25;4992074;28;20172;-45
2022/12/25 12:57:05;;;;;;;24.58;13.32;;;;;;;6.18;100.00;101247.22;5010374;28;20841;-42
2022/12/25 12:59:45;;;;;;;21.27;12.07;;;;;;;6.24;100.00;101248.94;5010286;28;20173;-43
2022/12/25 13:02:35;;;;;;;21.77;11.77;;;;;;;6.16;100.00;101241.91;5010418;28;20359;-42
2022/12/25 13:05:40;;;;;;;24.52;12.05;;;;;;;6.15;100.00;101240.16;5010384;28;20176;-42
2022/12/25 13:08:43;;;;;;;22.20;13.32;;;;;;;6.13;100.00;101238.44;5010247;28;20210;-43